Etusivu
METAR-TAF:

METAR-TAF

Lentoasemat :

Vesisaari, Norja

Leveyspiiri: 70-04N, Pituuspiiri: 029-51E, korkeus merenpinnasta: 3 m

Tämänhetkinen sää

Tämä raportti tehtiin 48 minuuttia sitten, kello 17.50 UTC
Tuuli 5 kn lännestä/luoteesta
Lämpötila 7°C
Kosteus 100%
Ilmanpaine 1026 hPa
Näkyvyys 10 km tai enemmän
Muutamia pilviä 2500 ft:n korkeudessa
Hajanaisia pilviä 6000 ft:n korkeudessa
sadekuuroja näköpiirissä

METAR: ENVD 221750Z 30005KT 9999 VCSH FEW025 SCT060 07/07 Q1026

Aika: 20:38 (18:38 UTC)

Sääennuste

Tämä raportti tehtiin 1 tunti ja 38 minuuttia sitten, kello 17.00 UTC
Ennuste voimassa 22. päivästä klo 18 UTC - 22. päivään klo 23 UTC
Tuuli 8 kn lännestä/lounaasta
Näkyvyys 10 km tai enemmän
Muutamia pilviä 1000 ft:n korkeudessa
Hajonneita pilviä 3000 ft:n korkeudessa
Ajoittain
22. päivästä klo 18 UTC - 22. päivään klo 21 UTC
Hajonneita pilviä 1200 ft:n korkeudessa

TAF: ENVD 221700Z 2218/2223 25008KT 9999 FEW010 BKN030 TEMPO 2218/2221 BKN012

Säähavainnot ja -ennusteet yli 4000 lentoasemalta (METAR- ja TAF-raportit).

Käytössä olevat sääasemat on merkitty karttaan keltaisilla ja punaisilla pisteillä.

Aseta hiiri pisteen päälle nähdäksesi sääaseman nimen.

Klikkaa sitten nähdäksesi säähavainnot ja -ennusteet.

Kartan vaihtaminen: klikkaa mustalla rastilla varustettuja vihreitä pisteitä, niin voit zoomata sisään; viivalla varustettua vihreää pistettä, niin voit zoomata ulos tai vihreitä nuolia, niin pääset viereisille kartoille.


METAR-TAF: